Flugplatz Pasewalk

Für EDCV sind keine METAR/TAF Berichte vorhanden.
Es werden die Flugwettermeldungen vom Flugplatz Heringsdorf in 43 km Entfernung angezeigt.

Bericht für EDAH

vom 14.11. um 10:20 UTC

Wind 6 kt aus 170°

Sichtweite 10 km oder mehr

gute Sicht, keine Wolken < 5000 ft, keine CB, keine Wettererscheinungen (CAVOK)

Temperatur 6.0°C

Taupunkt 4.0°C

Luftfeuchtigkeit 87%

Luftdruck 1010 hPa

EDAH 141020Z 17006KT CAVOK 06/04 Q1010

Prognose für EDAH

vom 14.11. um 00:00 UTC

Zwischen 00:00 UTC und 00:00 UTC

Wind 6 kt aus 180°

Sichtweite 10 km oder mehr

keine signifikanten Wettererscheinungen

keine Wolken


Zwischen 00:00 und 00:00 UTC übergehend zu

Wind 8 kt aus 120°

Sichtweite 10 km oder mehr

keine signifikanten Wettererscheinungen

keine Wolken

TAF EDAH 140800Z 1409/1418 18006KT CAVOK BECMG 1412/1414 12008KT
Impressum